sensor_id;sensor_type;location;lat;lon;timestamp;P1;durP1;ratioP1;P2;durP2;ratioP2
77123;SDS011;66079;47.646;19.130;2023-04-29T00:00:53;14.53;;;9.60;;
77123;SDS011;66079;47.646;19.130;2023-04-29T00:03:55;13.07;;;9.68;;
77123;SDS011;66079;47.646;19.130;2023-04-29T00:06:58;13.43;;;10.05;;
77123;SDS011;66079;47.646;19.130;2023-04-29T00:10:01;17.42;;;10.85;;
77123;SDS011;66079;47.646;19.130;2023-04-29T00:13:04;15.05;;;11.35;;
77123;SDS011;66079;47.646;19.130;2023-04-29T00:16:07;16.60;;;10.53;;
77123;SDS011;66079;47.646;19.130;2023-04-29T00:19:13;14.40;;;9.70;;
77123;SDS011;66079;47.646;19.130;2023-04-29T00:22:16;13.73;;;10.40;;
77123;SDS011;66079;47.646;19.130;2023-04-29T00:25:19;16.55;;;10.07;;
77123;SDS011;66079;47.646;19.130;2023-04-29T00:28:21;13.93;;;10.05;;
77123;SDS011;66079;47.646;19.130;2023-04-29T00:31:24;12.63;;;7.80;;
77123;SDS011;66079;47.646;19.130;2023-04-29T00:34:26;11.77;;;7.60;;
77123;SDS011;66079;47.646;19.130;2023-04-29T00:37:29;12.70;;;7.38;;
77123;SDS011;66079;47.646;19.130;2023-04-29T00:40:31;7.65;;;6.32;;
77123;SDS011;66079;47.646;19.130;2023-04-29T00:43:34;10.25;;;7.38;;
77123;SDS011;66079;47.646;19.130;2023-04-29T00:46:37;8.73;;;7.03;;
77123;SDS011;66079;47.646;19.130;2023-04-29T00:49:40;10.13;;;7.28;;
77123;SDS011;66079;47.646;19.130;2023-04-29T00:52:43;10.13;;;6.88;;
77123;SDS011;66079;47.646;19.130;2023-04-29T00:55:46;13.63;;;7.22;;
77123;SDS011;66079;47.646;19.130;2023-04-29T00:58:49;9.32;;;7.30;;
77123;SDS011;66079;47.646;19.130;2023-04-29T01:01:53;10.43;;;7.37;;
77123;SDS011;66079;47.646;19.130;2023-04-29T01:04:56;8.52;;;6.10;;
77123;SDS011;66079;47.646;19.130;2023-04-29T01:11:48;12.50;;;7.55;;
77123;SDS011;66079;47.646;19.130;2023-04-29T01:18:45;16.43;;;7.40;;
77123;SDS011;66079;47.646;19.130;2023-04-29T01:21:54;12.10;;;7.72;;
77123;SDS011;66079;47.646;19.130;2023-04-29T01:24:57;12.20;;;7.82;;
77123;SDS011;66079;47.646;19.130;2023-04-29T01:28:19;10.68;;;7.43;;
77123;SDS011;66079;47.646;19.130;2023-04-29T01:31:40;10.75;;;7.65;;
77123;SDS011;66079;47.646;19.130;2023-04-29T01:38:22;11.48;;;8.00;;
77123;SDS011;66079;47.646;19.130;2023-04-29T01:41:43;10.18;;;8.02;;
77123;SDS011;66079;47.646;19.130;2023-04-29T01:45:00;10.30;;;7.90;;
77123;SDS011;66079;47.646;19.130;2023-04-29T01:48:07;11.55;;;8.43;;
77123;SDS011;66079;47.646;19.130;2023-04-29T01:51:11;12.63;;;9.10;;
77123;SDS011;66079;47.646;19.130;2023-04-29T01:54:14;13.30;;;9.23;;
77123;SDS011;66079;47.646;19.130;2023-04-29T01:57:17;14.43;;;8.55;;
77123;SDS011;66079;47.646;19.130;2023-04-29T02:00:29;11.38;;;8.07;;
77123;SDS011;66079;47.646;19.130;2023-04-29T02:03:32;13.73;;;8.88;;
77123;SDS011;66079;47.646;19.130;2023-04-29T02:06:36;12.07;;;8.20;;
77123;SDS011;66079;47.646;19.130;2023-04-29T02:09:39;11.02;;;7.85;;
77123;SDS011;66079;47.646;19.130;2023-04-29T02:12:45;9.52;;;7.78;;
77123;SDS011;66079;47.646;19.130;2023-04-29T02:15:48;13.70;;;7.95;;
77123;SDS011;66079;47.646;19.130;2023-04-29T02:18:51;10.10;;;7.13;;
77123;SDS011;66079;47.646;19.130;2023-04-29T02:21:55;9.13;;;6.20;;
77123;SDS011;66079;47.646;19.130;2023-04-29T02:25:00;10.18;;;6.40;;
77123;SDS011;66079;47.646;19.130;2023-04-29T02:28:02;7.93;;;5.60;;
77123;SDS011;66079;47.646;19.130;2023-04-29T02:31:05;10.18;;;5.40;;
77123;SDS011;66079;47.646;19.130;2023-04-29T02:34:08;7.72;;;5.00;;
77123;SDS011;66079;47.646;19.130;2023-04-29T02:37:11;7.73;;;5.10;;
77123;SDS011;66079;47.646;19.130;2023-04-29T02:40:14;7.43;;;5.53;;
77123;SDS011;66079;47.646;19.130;2023-04-29T02:43:17;8.30;;;4.95;;
77123;SDS011;66079;47.646;19.130;2023-04-29T02:46:20;7.03;;;4.63;;
77123;SDS011;66079;47.646;19.130;2023-04-29T02:49:22;6.97;;;4.30;;
77123;SDS011;66079;47.646;19.130;2023-04-29T02:52:25;7.90;;;4.73;;
77123;SDS011;66079;47.646;19.130;2023-04-29T02:55:28;8.30;;;4.78;;
77123;SDS011;66079;47.646;19.130;2023-04-29T02:58:35;6.68;;;4.63;;
77123;SDS011;66079;47.646;19.130;2023-04-29T03:01:38;5.50;;;4.28;;
77123;SDS011;66079;47.646;19.130;2023-04-29T03:04:41;7.75;;;4.20;;
77123;SDS011;66079;47.646;19.130;2023-04-29T03:07:43;6.07;;;4.30;;
77123;SDS011;66079;47.646;19.130;2023-04-29T03:10:46;6.47;;;4.53;;
77123;SDS011;66079;47.646;19.130;2023-04-29T03:13:49;5.63;;;4.38;;
77123;SDS011;66079;47.646;19.130;2023-04-29T03:16:52;6.90;;;4.53;;
77123;SDS011;66079;47.646;19.130;2023-04-29T03:19:57;6.57;;;4.07;;
77123;SDS011;66079;47.646;19.130;2023-04-29T03:23:00;6.50;;;4.30;;
77123;SDS011;66079;47.646;19.130;2023-04-29T03:26:03;6.80;;;4.32;;
77123;SDS011;66079;47.646;19.130;2023-04-29T03:29:06;6.43;;;4.03;;
77123;SDS011;66079;47.646;19.130;2023-04-29T03:32:09;7.88;;;4.22;;
77123;SDS011;66079;47.646;19.130;2023-04-29T03:35:12;7.45;;;4.40;;
77123;SDS011;66079;47.646;19.130;2023-04-29T03:38:37;7.33;;;4.30;;
77123;SDS011;66079;47.646;19.130;2023-04-29T03:41:40;5.15;;;4.22;;
77123;SDS011;66079;47.646;19.130;2023-04-29T03:44:43;8.23;;;4.53;;
77123;SDS011;66079;47.646;19.130;2023-04-29T03:47:45;6.28;;;4.13;;
77123;SDS011;66079;47.646;19.130;2023-04-29T03:50:48;7.18;;;5.05;;
77123;SDS011;66079;47.646;19.130;2023-04-29T03:53:51;4.73;;;4.13;;
77123;SDS011;66079;47.646;19.130;2023-04-29T03:56:55;5.28;;;4.50;;
77123;SDS011;66079;47.646;19.130;2023-04-29T03:59:58;6.22;;;4.20;;
77123;SDS011;66079;47.646;19.130;2023-04-29T04:03:01;8.02;;;4.53;;
77123;SDS011;66079;47.646;19.130;2023-04-29T04:06:08;8.18;;;4.72;;
77123;SDS011;66079;47.646;19.130;2023-04-29T04:09:11;5.87;;;4.40;;
77123;SDS011;66079;47.646;19.130;2023-04-29T04:12:14;8.50;;;5.00;;
77123;SDS011;66079;47.646;19.130;2023-04-29T04:15:16;9.10;;;4.75;;
77123;SDS011;66079;47.646;19.130;2023-04-29T04:18:19;9.00;;;4.90;;
77123;SDS011;66079;47.646;19.130;2023-04-29T04:21:22;8.68;;;5.43;;
77123;SDS011;66079;47.646;19.130;2023-04-29T04:24:34;12.93;;;5.50;;
77123;SDS011;66079;47.646;19.130;2023-04-29T04:27:38;9.02;;;5.63;;
77123;SDS011;66079;47.646;19.130;2023-04-29T04:30:44;9.82;;;5.80;;
77123;SDS011;66079;47.646;19.130;2023-04-29T04:33:47;9.13;;;6.38;;
77123;SDS011;66079;47.646;19.130;2023-04-29T04:36:50;11.63;;;7.45;;
77123;SDS011;66079;47.646;19.130;2023-04-29T04:39:52;9.97;;;6.47;;
77123;SDS011;66079;47.646;19.130;2023-04-29T04:42:55;8.90;;;6.03;;
77123;SDS011;66079;47.646;19.130;2023-04-29T04:45:58;8.80;;;5.95;;
77123;SDS011;66079;47.646;19.130;2023-04-29T04:49:02;8.32;;;5.93;;
77123;SDS011;66079;47.646;19.130;2023-04-29T04:52:07;6.32;;;5.70;;
77123;SDS011;66079;47.646;19.130;2023-04-29T04:55:10;10.43;;;6.77;;
77123;SDS011;66079;47.646;19.130;2023-04-29T04:58:18;9.82;;;6.90;;
77123;SDS011;66079;47.646;19.130;2023-04-29T05:01:21;11.23;;;7.07;;
77123;SDS011;66079;47.646;19.130;2023-04-29T05:04:23;10.85;;;6.57;;
77123;SDS011;66079;47.646;19.130;2023-04-29T05:07:26;9.48;;;6.50;;
77123;SDS011;66079;47.646;19.130;2023-04-29T05:10:35;11.20;;;6.77;;
77123;SDS011;66079;47.646;19.130;2023-04-29T05:13:40;11.07;;;7.03;;
77123;SDS011;66079;47.646;19.130;2023-04-29T05:16:42;11.52;;;6.53;;
77123;SDS011;66079;47.646;19.130;2023-04-29T05:19:49;8.75;;;6.32;;
77123;SDS011;66079;47.646;19.130;2023-04-29T05:22:52;10.70;;;6.30;;
77123;SDS011;66079;47.646;19.130;2023-04-29T05:25:55;12.10;;;7.17;;
77123;SDS011;66079;47.646;19.130;2023-04-29T05:28:58;8.20;;;6.15;;
77123;SDS011;66079;47.646;19.130;2023-04-29T05:32:01;9.82;;;6.20;;
77123;SDS011;66079;47.646;19.130;2023-04-29T05:35:04;7.80;;;6.22;;
77123;SDS011;66079;47.646;19.130;2023-04-29T05:38:09;9.55;;;6.40;;
77123;SDS011;66079;47.646;19.130;2023-04-29T05:41:20;9.00;;;6.47;;
77123;SDS011;66079;47.646;19.130;2023-04-29T05:44:29;9.05;;;6.30;;
77123;SDS011;66079;47.646;19.130;2023-04-29T05:47:32;9.07;;;6.20;;
77123;SDS011;66079;47.646;19.130;2023-04-29T05:50:35;10.07;;;7.07;;
77123;SDS011;66079;47.646;19.130;2023-04-29T05:53:37;10.80;;;7.10;;
77123;SDS011;66079;47.646;19.130;2023-04-29T05:56:42;11.73;;;7.33;;
77123;SDS011;66079;47.646;19.130;2023-04-29T05:59:45;11.82;;;7.20;;
77123;SDS011;66079;47.646;19.130;2023-04-29T06:02:48;9.13;;;6.55;;
77123;SDS011;66079;47.646;19.130;2023-04-29T06:06:01;8.73;;;6.35;;
77123;SDS011;66079;47.646;19.130;2023-04-29T06:09:27;9.77;;;6.88;;
77123;SDS011;66079;47.646;19.130;2023-04-29T06:12:34;9.63;;;6.73;;
77123;SDS011;66079;47.646;19.130;2023-04-29T06:15:36;10.13;;;7.00;;
77123;SDS011;66079;47.646;19.130;2023-04-29T06:18:39;9.68;;;7.18;;
77123;SDS011;66079;47.646;19.130;2023-04-29T06:21:42;10.05;;;6.97;;
77123;SDS011;66079;47.646;19.130;2023-04-29T06:24:45;8.75;;;7.10;;
77123;SDS011;66079;47.646;19.130;2023-04-29T06:27:55;10.93;;;7.37;;
77123;SDS011;66079;47.646;19.130;2023-04-29T06:31:01;11.13;;;7.03;;
77123;SDS011;66079;47.646;19.130;2023-04-29T06:34:04;9.68;;;7.05;;
77123;SDS011;66079;47.646;19.130;2023-04-29T06:37:11;9.88;;;7.22;;
77123;SDS011;66079;47.646;19.130;2023-04-29T06:40:52;9.02;;;7.18;;
77123;SDS011;66079;47.646;19.130;2023-04-29T06:44:23;11.17;;;7.67;;
77123;SDS011;66079;47.646;19.130;2023-04-29T06:47:38;11.40;;;7.30;;
77123;SDS011;66079;47.646;19.130;2023-04-29T06:50:52;11.52;;;7.88;;
77123;SDS011;66079;47.646;19.130;2023-04-29T06:53:59;9.50;;;7.30;;
77123;SDS011;66079;47.646;19.130;2023-04-29T06:57:02;10.93;;;7.45;;
77123;SDS011;66079;47.646;19.130;2023-04-29T07:00:07;9.93;;;7.33;;
77123;SDS011;66079;47.646;19.130;2023-04-29T07:03:10;11.02;;;7.60;;
77123;SDS011;66079;47.646;19.130;2023-04-29T07:06:13;11.32;;;7.35;;
77123;SDS011;66079;47.646;19.130;2023-04-29T07:09:15;9.77;;;6.45;;
77123;SDS011;66079;47.646;19.130;2023-04-29T07:12:19;10.13;;;7.38;;
77123;SDS011;66079;47.646;19.130;2023-04-29T07:15:22;8.63;;;5.93;;
77123;SDS011;66079;47.646;19.130;2023-04-29T07:18:25;12.13;;;6.25;;
77123;SDS011;66079;47.646;19.130;2023-04-29T07:21:27;9.00;;;5.90;;
77123;SDS011;66079;47.646;19.130;2023-04-29T07:24:31;10.43;;;6.75;;
77123;SDS011;66079;47.646;19.130;2023-04-29T07:27:34;8.32;;;5.70;;
77123;SDS011;66079;47.646;19.130;2023-04-29T07:30:37;9.03;;;5.63;;
77123;SDS011;66079;47.646;19.130;2023-04-29T07:33:39;9.68;;;6.20;;
77123;SDS011;66079;47.646;19.130;2023-04-29T07:36:43;11.82;;;6.22;;
77123;SDS011;66079;47.646;19.130;2023-04-29T07:39:46;8.35;;;5.35;;
77123;SDS011;66079;47.646;19.130;2023-04-29T07:42:50;8.90;;;4.97;;
77123;SDS011;66079;47.646;19.130;2023-04-29T07:45:53;7.03;;;5.00;;
77123;SDS011;66079;47.646;19.130;2023-04-29T07:48:56;7.53;;;5.22;;
77123;SDS011;66079;47.646;19.130;2023-04-29T07:52:00;8.85;;;5.20;;
77123;SDS011;66079;47.646;19.130;2023-04-29T07:55:03;9.50;;;5.47;;
77123;SDS011;66079;47.646;19.130;2023-04-29T07:58:06;6.07;;;4.85;;
77123;SDS011;66079;47.646;19.130;2023-04-29T08:01:09;7.40;;;4.57;;
77123;SDS011;66079;47.646;19.130;2023-04-29T08:04:14;6.68;;;4.85;;
77123;SDS011;66079;47.646;19.130;2023-04-29T08:07:23;7.93;;;4.95;;
77123;SDS011;66079;47.646;19.130;2023-04-29T08:10:26;7.50;;;5.20;;
77123;SDS011;66079;47.646;19.130;2023-04-29T08:13:28;7.75;;;5.43;;
77123;SDS011;66079;47.646;19.130;2023-04-29T08:16:31;7.17;;;4.97;;
77123;SDS011;66079;47.646;19.130;2023-04-29T08:19:34;8.32;;;5.78;;
77123;SDS011;66079;47.646;19.130;2023-04-29T08:22:37;7.70;;;5.35;;
77123;SDS011;66079;47.646;19.130;2023-04-29T08:25:42;8.85;;;5.60;;
77123;SDS011;66079;47.646;19.130;2023-04-29T08:28:45;9.90;;;5.50;;
77123;SDS011;66079;47.646;19.130;2023-04-29T08:31:47;7.63;;;5.40;;
77123;SDS011;66079;47.646;19.130;2023-04-29T08:34:51;9.80;;;5.53;;
77123;SDS011;66079;47.646;19.130;2023-04-29T08:37:54;8.70;;;5.18;;
77123;SDS011;66079;47.646;19.130;2023-04-29T08:40:57;8.82;;;5.35;;
77123;SDS011;66079;47.646;19.130;2023-04-29T08:43:59;8.55;;;4.88;;
77123;SDS011;66079;47.646;19.130;2023-04-29T08:47:02;6.40;;;4.70;;
77123;SDS011;66079;47.646;19.130;2023-04-29T08:50:06;8.02;;;5.00;;
77123;SDS011;66079;47.646;19.130;2023-04-29T08:53:12;7.10;;;4.80;;
77123;SDS011;66079;47.646;19.130;2023-04-29T08:56:16;8.10;;;4.68;;
77123;SDS011;66079;47.646;19.130;2023-04-29T08:59:22;7.63;;;4.93;;
77123;SDS011;66079;47.646;19.130;2023-04-29T09:02:27;6.13;;;4.83;;
77123;SDS011;66079;47.646;19.130;2023-04-29T09:05:31;7.65;;;4.82;;
77123;SDS011;66079;47.646;19.130;2023-04-29T09:08:35;8.30;;;5.00;;
77123;SDS011;66079;47.646;19.130;2023-04-29T09:11:38;7.72;;;4.78;;
77123;SDS011;66079;47.646;19.130;2023-04-29T09:14:41;8.02;;;4.95;;
77123;SDS011;66079;47.646;19.130;2023-04-29T09:17:47;8.83;;;4.80;;
77123;SDS011;66079;47.646;19.130;2023-04-29T09:20:50;7.20;;;4.63;;
77123;SDS011;66079;47.646;19.130;2023-04-29T09:23:53;7.20;;;4.30;;
77123;SDS011;66079;47.646;19.130;2023-04-29T09:27:00;7.65;;;4.80;;
77123;SDS011;66079;47.646;19.130;2023-04-29T09:30:04;6.50;;;4.63;;
77123;SDS011;66079;47.646;19.130;2023-04-29T09:33:08;7.17;;;4.40;;
77123;SDS011;66079;47.646;19.130;2023-04-29T09:36:11;6.25;;;4.28;;
77123;SDS011;66079;47.646;19.130;2023-04-29T09:42:20;6.38;;;3.88;;
77123;SDS011;66079;47.646;19.130;2023-04-29T09:45:32;5.68;;;3.90;;
77123;SDS011;66079;47.646;19.130;2023-04-29T09:48:38;5.17;;;3.67;;
77123;SDS011;66079;47.646;19.130;2023-04-29T09:51:50;6.90;;;4.10;;
77123;SDS011;66079;47.646;19.130;2023-04-29T09:54:56;7.03;;;3.70;;
77123;SDS011;66079;47.646;19.130;2023-04-29T09:58:06;5.78;;;3.75;;
77123;SDS011;66079;47.646;19.130;2023-04-29T10:01:08;6.05;;;3.40;;
77123;SDS011;66079;47.646;19.130;2023-04-29T10:04:15;5.07;;;3.63;;
77123;SDS011;66079;47.646;19.130;2023-04-29T10:07:19;5.72;;;3.70;;
77123;SDS011;66079;47.646;19.130;2023-04-29T10:10:23;6.05;;;3.05;;
77123;SDS011;66079;47.646;19.130;2023-04-29T10:13:27;4.57;;;3.33;;
77123;SDS011;66079;47.646;19.130;2023-04-29T10:16:32;4.95;;;3.40;;
77123;SDS011;66079;47.646;19.130;2023-04-29T10:19:46;7.67;;;3.50;;
77123;SDS011;66079;47.646;19.130;2023-04-29T10:23:09;5.10;;;3.28;;
77123;SDS011;66079;47.646;19.130;2023-04-29T10:26:13;6.43;;;3.55;;
77123;SDS011;66079;47.646;19.130;2023-04-29T10:29:17;7.40;;;3.88;;
77123;SDS011;66079;47.646;19.130;2023-04-29T10:32:22;5.53;;;3.72;;
77123;SDS011;66079;47.646;19.130;2023-04-29T10:35:29;5.37;;;3.70;;
77123;SDS011;66079;47.646;19.130;2023-04-29T10:41:42;5.38;;;4.07;;
77123;SDS011;66079;47.646;19.130;2023-04-29T10:48:20;6.70;;;3.70;;
77123;SDS011;66079;47.646;19.130;2023-04-29T10:54:35;6.68;;;3.97;;
77123;SDS011;66079;47.646;19.130;2023-04-29T10:57:37;5.78;;;4.05;;
77123;SDS011;66079;47.646;19.130;2023-04-29T11:00:40;6.95;;;4.13;;
77123;SDS011;66079;47.646;19.130;2023-04-29T11:03:50;6.95;;;4.15;;
77123;SDS011;66079;47.646;19.130;2023-04-29T11:07:01;5.57;;;3.90;;
77123;SDS011;66079;47.646;19.130;2023-04-29T11:10:04;6.85;;;4.13;;
77123;SDS011;66079;47.646;19.130;2023-04-29T11:13:20;6.18;;;4.22;;
77123;SDS011;66079;47.646;19.130;2023-04-29T11:16:27;5.20;;;4.07;;
77123;SDS011;66079;47.646;19.130;2023-04-29T11:19:31;7.22;;;4.10;;
77123;SDS011;66079;47.646;19.130;2023-04-29T11:22:35;6.27;;;4.40;;
77123;SDS011;66079;47.646;19.130;2023-04-29T11:25:38;6.88;;;4.35;;
77123;SDS011;66079;47.646;19.130;2023-04-29T11:28:41;8.50;;;4.60;;
77123;SDS011;66079;47.646;19.130;2023-04-29T11:31:44;5.05;;;4.22;;
77123;SDS011;66079;47.646;19.130;2023-04-29T11:34:48;6.25;;;4.43;;
77123;SDS011;66079;47.646;19.130;2023-04-29T11:37:50;4.70;;;4.07;;
77123;SDS011;66079;47.646;19.130;2023-04-29T11:40:54;8.35;;;4.15;;
77123;SDS011;66079;47.646;19.130;2023-04-29T11:43:58;5.47;;;4.00;;
77123;SDS011;66079;47.646;19.130;2023-04-29T11:47:02;5.10;;;4.00;;
77123;SDS011;66079;47.646;19.130;2023-04-29T11:50:07;7.82;;;4.47;;
77123;SDS011;66079;47.646;19.130;2023-04-29T11:53:11;5.03;;;4.20;;
77123;SDS011;66079;47.646;19.130;2023-04-29T11:56:14;7.88;;;4.90;;
77123;SDS011;66079;47.646;19.130;2023-04-29T11:59:16;7.95;;;4.82;;
77123;SDS011;66079;47.646;19.130;2023-04-29T12:02:21;5.82;;;4.07;;
77123;SDS011;66079;47.646;19.130;2023-04-29T12:05:25;7.78;;;3.90;;
77123;SDS011;66079;47.646;19.130;2023-04-29T12:08:28;6.27;;;4.13;;
77123;SDS011;66079;47.646;19.130;2023-04-29T12:11:32;5.95;;;4.28;;
77123;SDS011;66079;47.646;19.130;2023-04-29T12:14:35;4.68;;;3.97;;
77123;SDS011;66079;47.646;19.130;2023-04-29T12:17:38;5.63;;;3.92;;
77123;SDS011;66079;47.646;19.130;2023-04-29T12:20:42;5.25;;;4.30;;
77123;SDS011;66079;47.646;19.130;2023-04-29T12:23:44;7.80;;;4.67;;
77123;SDS011;66079;47.646;19.130;2023-04-29T12:26:48;5.55;;;3.75;;
77123;SDS011;66079;47.646;19.130;2023-04-29T12:29:50;5.43;;;3.80;;
77123;SDS011;66079;47.646;19.130;2023-04-29T12:32:54;6.97;;;3.88;;
77123;SDS011;66079;47.646;19.130;2023-04-29T12:35:57;4.90;;;4.10;;
77123;SDS011;66079;47.646;19.130;2023-04-29T12:39:00;5.07;;;4.30;;
77123;SDS011;66079;47.646;19.130;2023-04-29T12:42:03;7.47;;;4.00;;
77123;SDS011;66079;47.646;19.130;2023-04-29T12:45:05;5.22;;;4.15;;
77123;SDS011;66079;47.646;19.130;2023-04-29T12:48:09;6.88;;;4.28;;
77123;SDS011;66079;47.646;19.130;2023-04-29T12:51:30;4.60;;;4.20;;
77123;SDS011;66079;47.646;19.130;2023-04-29T12:54:34;6.07;;;4.17;;
77123;SDS011;66079;47.646;19.130;2023-04-29T12:57:42;7.43;;;4.43;;
77123;SDS011;66079;47.646;19.130;2023-04-29T13:00:44;5.85;;;4.07;;
77123;SDS011;66079;47.646;19.130;2023-04-29T13:03:47;5.45;;;4.32;;
77123;SDS011;66079;47.646;19.130;2023-04-29T13:06:51;6.75;;;4.10;;
77123;SDS011;66079;47.646;19.130;2023-04-29T13:10:01;7.60;;;4.20;;
77123;SDS011;66079;47.646;19.130;2023-04-29T13:13:03;5.80;;;3.90;;
77123;SDS011;66079;47.646;19.130;2023-04-29T13:16:06;6.82;;;4.40;;
77123;SDS011;66079;47.646;19.130;2023-04-29T13:19:09;6.47;;;3.78;;
77123;SDS011;66079;47.646;19.130;2023-04-29T13:22:32;5.97;;;4.40;;
77123;SDS011;66079;47.646;19.130;2023-04-29T13:25:35;8.27;;;4.20;;
77123;SDS011;66079;47.646;19.130;2023-04-29T13:28:37;4.72;;;3.80;;
77123;SDS011;66079;47.646;19.130;2023-04-29T13:31:40;6.30;;;3.50;;
77123;SDS011;66079;47.646;19.130;2023-04-29T13:34:45;5.78;;;3.70;;
77123;SDS011;66079;47.646;19.130;2023-04-29T13:37:48;5.00;;;3.75;;
77123;SDS011;66079;47.646;19.130;2023-04-29T13:40:50;3.90;;;3.43;;
77123;SDS011;66079;47.646;19.130;2023-04-29T13:43:56;6.00;;;3.60;;
77123;SDS011;66079;47.646;19.130;2023-04-29T13:46:59;6.10;;;3.80;;
77123;SDS011;66079;47.646;19.130;2023-04-29T13:50:03;4.82;;;3.53;;
77123;SDS011;66079;47.646;19.130;2023-04-29T13:53:08;7.10;;;3.50;;
77123;SDS011;66079;47.646;19.130;2023-04-29T13:56:31;3.87;;;2.97;;
77123;SDS011;66079;47.646;19.130;2023-04-29T13:59:36;5.40;;;3.60;;
77123;SDS011;66079;47.646;19.130;2023-04-29T14:02:49;5.47;;;3.42;;
77123;SDS011;66079;47.646;19.130;2023-04-29T14:05:55;5.60;;;3.50;;
77123;SDS011;66079;47.646;19.130;2023-04-29T14:08:57;4.90;;;3.83;;
77123;SDS011;66079;47.646;19.130;2023-04-29T14:12:03;5.10;;;3.67;;
77123;SDS011;66079;47.646;19.130;2023-04-29T14:15:06;5.15;;;3.50;;
77123;SDS011;66079;47.646;19.130;2023-04-29T14:18:09;4.88;;;3.58;;
77123;SDS011;66079;47.646;19.130;2023-04-29T14:21:12;6.30;;;3.20;;
77123;SDS011;66079;47.646;19.130;2023-04-29T14:24:15;4.70;;;3.10;;
77123;SDS011;66079;47.646;19.130;2023-04-29T14:27:18;4.07;;;3.50;;
77123;SDS011;66079;47.646;19.130;2023-04-29T14:30:20;5.43;;;3.40;;
77123;SDS011;66079;47.646;19.130;2023-04-29T14:33:23;4.55;;;3.20;;
77123;SDS011;66079;47.646;19.130;2023-04-29T14:36:26;4.53;;;3.20;;
77123;SDS011;66079;47.646;19.130;2023-04-29T14:39:29;5.82;;;3.50;;
77123;SDS011;66079;47.646;19.130;2023-04-29T14:42:32;4.43;;;3.30;;
77123;SDS011;66079;47.646;19.130;2023-04-29T14:45:35;5.00;;;3.30;;
77123;SDS011;66079;47.646;19.130;2023-04-29T14:48:38;5.78;;;3.13;;
77123;SDS011;66079;47.646;19.130;2023-04-29T14:51:41;8.30;;;3.20;;
77123;SDS011;66079;47.646;19.130;2023-04-29T14:54:44;4.15;;;3.13;;
77123;SDS011;66079;47.646;19.130;2023-04-29T14:57:50;5.13;;;4.00;;
77123;SDS011;66079;47.646;19.130;2023-04-29T15:00:53;6.70;;;3.30;;
77123;SDS011;66079;47.646;19.130;2023-04-29T15:03:56;7.63;;;3.80;;
77123;SDS011;66079;47.646;19.130;2023-04-29T15:06:58;6.95;;;3.83;;
77123;SDS011;66079;47.646;19.130;2023-04-29T15:10:01;4.18;;;3.47;;
77123;SDS011;66079;47.646;19.130;2023-04-29T15:13:04;4.37;;;3.57;;
77123;SDS011;66079;47.646;19.130;2023-04-29T15:16:07;4.57;;;3.60;;
77123;SDS011;66079;47.646;19.130;2023-04-29T15:19:10;4.00;;;3.30;;
77123;SDS011;66079;47.646;19.130;2023-04-29T15:22:13;5.57;;;3.28;;
77123;SDS011;66079;47.646;19.130;2023-04-29T15:25:16;6.32;;;3.90;;
77123;SDS011;66079;47.646;19.130;2023-04-29T15:28:19;5.13;;;3.27;;
77123;SDS011;66079;47.646;19.130;2023-04-29T15:31:21;4.65;;;3.15;;
77123;SDS011;66079;47.646;19.130;2023-04-29T15:34:26;6.70;;;3.40;;
77123;SDS011;66079;47.646;19.130;2023-04-29T15:37:29;5.93;;;3.60;;
77123;SDS011;66079;47.646;19.130;2023-04-29T15:40:31;4.63;;;3.33;;
77123;SDS011;66079;47.646;19.130;2023-04-29T15:43:34;5.17;;;3.40;;
77123;SDS011;66079;47.646;19.130;2023-04-29T15:46:36;4.45;;;3.25;;
77123;SDS011;66079;47.646;19.130;2023-04-29T15:49:40;7.50;;;3.92;;
77123;SDS011;66079;47.646;19.130;2023-04-29T15:52:43;7.93;;;3.60;;
77123;SDS011;66079;47.646;19.130;2023-04-29T15:55:46;5.63;;;3.70;;
77123;SDS011;66079;47.646;19.130;2023-04-29T15:58:49;7.73;;;3.57;;
77123;SDS011;66079;47.646;19.130;2023-04-29T16:01:51;4.18;;;3.40;;
77123;SDS011;66079;47.646;19.130;2023-04-29T16:04:54;6.18;;;3.10;;
77123;SDS011;66079;47.646;19.130;2023-04-29T16:07:56;4.28;;;3.33;;
77123;SDS011;66079;47.646;19.130;2023-04-29T16:10:59;5.30;;;3.30;;
77123;SDS011;66079;47.646;19.130;2023-04-29T16:14:01;3.80;;;3.40;;
77123;SDS011;66079;47.646;19.130;2023-04-29T16:17:04;4.55;;;3.60;;
77123;SDS011;66079;47.646;19.130;2023-04-29T16:20:07;7.32;;;3.40;;
77123;SDS011;66079;47.646;19.130;2023-04-29T16:23:10;7.13;;;3.40;;
77123;SDS011;66079;47.646;19.130;2023-04-29T16:26:13;4.47;;;3.15;;
77123;SDS011;66079;47.646;19.130;2023-04-29T16:29:16;5.87;;;3.50;;
77123;SDS011;66079;47.646;19.130;2023-04-29T16:32:19;5.43;;;3.75;;
77123;SDS011;66079;47.646;19.130;2023-04-29T16:35:22;5.32;;;3.20;;
77123;SDS011;66079;47.646;19.130;2023-04-29T16:38:27;5.13;;;3.28;;
77123;SDS011;66079;47.646;19.130;2023-04-29T16:41:30;5.75;;;3.50;;
77123;SDS011;66079;47.646;19.130;2023-04-29T16:44:33;7.73;;;3.20;;
77123;SDS011;66079;47.646;19.130;2023-04-29T16:47:35;3.95;;;3.40;;
77123;SDS011;66079;47.646;19.130;2023-04-29T16:50:38;4.88;;;3.40;;
77123;SDS011;66079;47.646;19.130;2023-04-29T16:53:41;6.75;;;3.38;;
77123;SDS011;66079;47.646;19.130;2023-04-29T16:56:43;5.05;;;3.25;;
77123;SDS011;66079;47.646;19.130;2023-04-29T16:59:46;5.97;;;3.47;;
77123;SDS011;66079;47.646;19.130;2023-04-29T17:02:49;6.03;;;3.50;;
77123;SDS011;66079;47.646;19.130;2023-04-29T17:05:52;5.88;;;3.25;;
77123;SDS011;66079;47.646;19.130;2023-04-29T17:08:55;5.30;;;3.38;;
77123;SDS011;66079;47.646;19.130;2023-04-29T17:11:58;5.45;;;3.55;;
77123;SDS011;66079;47.646;19.130;2023-04-29T17:15:01;4.93;;;3.70;;
77123;SDS011;66079;47.646;19.130;2023-04-29T17:18:04;8.20;;;3.80;;
77123;SDS011;66079;47.646;19.130;2023-04-29T17:21:07;4.78;;;3.67;;
77123;SDS011;66079;47.646;19.130;2023-04-29T17:24:10;6.95;;;3.90;;
77123;SDS011;66079;47.646;19.130;2023-04-29T17:27:13;7.57;;;3.83;;
77123;SDS011;66079;47.646;19.130;2023-04-29T17:30:15;4.47;;;3.60;;
77123;SDS011;66079;47.646;19.130;2023-04-29T17:33:18;5.80;;;3.70;;
77123;SDS011;66079;47.646;19.130;2023-04-29T17:36:21;6.63;;;3.90;;
77123;SDS011;66079;47.646;19.130;2023-04-29T17:39:23;6.47;;;3.55;;
77123;SDS011;66079;47.646;19.130;2023-04-29T17:42:26;6.32;;;4.07;;
77123;SDS011;66079;47.646;19.130;2023-04-29T17:45:28;7.03;;;3.70;;
77123;SDS011;66079;47.646;19.130;2023-04-29T17:48:31;6.93;;;4.00;;
77123;SDS011;66079;47.646;19.130;2023-04-29T17:51:34;7.80;;;4.25;;
77123;SDS011;66079;47.646;19.130;2023-04-29T17:54:38;4.50;;;3.97;;
77123;SDS011;66079;47.646;19.130;2023-04-29T17:57:41;7.90;;;3.92;;
77123;SDS011;66079;47.646;19.130;2023-04-29T18:00:44;4.93;;;3.60;;
77123;SDS011;66079;47.646;19.130;2023-04-29T18:03:47;9.02;;;4.28;;
77123;SDS011;66079;47.646;19.130;2023-04-29T18:06:52;9.25;;;4.47;;
77123;SDS011;66079;47.646;19.130;2023-04-29T18:09:54;7.50;;;4.53;;
77123;SDS011;66079;47.646;19.130;2023-04-29T18:12:58;7.25;;;4.47;;
77123;SDS011;66079;47.646;19.130;2023-04-29T18:16:01;8.37;;;4.30;;
77123;SDS011;66079;47.646;19.130;2023-04-29T18:19:03;10.50;;;4.35;;
77123;SDS011;66079;47.646;19.130;2023-04-29T18:22:06;8.27;;;4.57;;
77123;SDS011;66079;47.646;19.130;2023-04-29T18:25:11;9.70;;;4.63;;
77123;SDS011;66079;47.646;19.130;2023-04-29T18:28:13;9.75;;;5.07;;
77123;SDS011;66079;47.646;19.130;2023-04-29T18:31:26;7.73;;;4.97;;
77123;SDS011;66079;47.646;19.130;2023-04-29T18:34:29;8.82;;;5.57;;